createdAt,value
2022-09-17T00:00:00.280Z,1.1
2022-09-17T00:05:00.490Z,1.1
2022-09-17T00:10:00.263Z,1.1
2022-09-17T00:15:01.406Z,1.1
2022-09-17T00:20:00.291Z,1.1
2022-09-17T00:25:01.005Z,1.1
2022-09-17T00:30:00.278Z,1.1
2022-09-17T00:35:00.652Z,1.1
2022-09-17T00:40:00.407Z,1.1
2022-09-17T00:45:00.295Z,1.1
2022-09-17T00:50:00.318Z,1.1
2022-09-17T00:55:00.324Z,1.1
2022-09-17T01:00:00.323Z,1.1
2022-09-17T01:05:00.551Z,1.1
2022-09-17T01:10:00.325Z,1.1
2022-09-17T01:15:00.318Z,1.1
2022-09-17T01:20:00.320Z,1.1
2022-09-17T01:25:00.341Z,1.1
2022-09-17T01:30:00.332Z,1.1
2022-09-17T01:35:00.345Z,1.1
2022-09-17T01:40:00.488Z,1.1
2022-09-17T01:45:00.355Z,1.1
2022-09-17T01:50:00.372Z,1.1
2022-09-17T01:55:00.379Z,1.1
2022-09-17T02:00:00.438Z,1.1
2022-09-17T02:05:00.788Z,1.1
2022-09-17T02:10:00.771Z,1.1
2022-09-17T02:15:00.767Z,1.1
2022-09-17T02:20:00.781Z,1.1
2022-09-17T02:25:00.778Z,1.1
2022-09-17T02:30:00.789Z,1.1
2022-09-17T02:35:00.795Z,1.1
2022-09-17T02:40:00.862Z,1.1
2022-09-17T02:45:00.790Z,1.1
2022-09-17T02:50:00.815Z,1.1
2022-09-17T02:55:00.820Z,1.1
2022-09-17T03:00:00.863Z,1.1
2022-09-17T03:05:00.833Z,1.1
2022-09-17T03:10:00.837Z,1.1
2022-09-17T03:15:00.833Z,1.1
2022-09-17T03:20:00.853Z,1.1
2022-09-17T03:25:00.842Z,1.1
2022-09-17T03:30:00.857Z,1.1
2022-09-17T03:35:00.850Z,1.1
2022-09-17T03:40:00.954Z,1.1
2022-09-17T03:45:00.864Z,1.1
2022-09-17T03:50:00.188Z,1.1
2022-09-17T03:55:00.206Z,1.1
2022-09-17T04:00:00.198Z,1.1
2022-09-17T04:05:00.209Z,1.1
2022-09-17T04:10:00.202Z,1.1
2022-09-17T04:15:00.221Z,1.1
2022-09-17T04:20:00.201Z,1.1
2022-09-17T04:25:00.356Z,1.1
2022-09-17T04:30:00.283Z,1.1
2022-09-17T04:35:00.272Z,1.1
2022-09-17T04:40:02.083Z,1.1
2022-09-17T04:45:00.223Z,2.9
2022-09-17T04:50:00.248Z,5.5
2022-09-17T04:55:00.250Z,12.3
2022-09-17T05:00:00.277Z,27.5
2022-09-17T05:05:00.256Z,54.3
2022-09-17T05:10:00.276Z,101.1
2022-09-17T05:15:00.259Z,143
2022-09-17T05:20:00.836Z,126.9
2022-09-17T05:25:00.357Z,239.2
2022-09-17T05:30:00.292Z,303.8
2022-09-17T05:35:04.800Z,296.6
2022-09-17T05:40:00.410Z,228
2022-09-17T05:45:00.328Z,322.5
2022-09-17T05:50:00.329Z,296.6
2022-09-17T05:55:00.315Z,414.5
2022-09-17T06:00:00.326Z,429.7
2022-09-17T06:05:00.477Z,891.2
2022-09-17T06:10:00.322Z,1187.5
2022-09-17T06:15:00.348Z,1016.5
2022-09-17T06:20:00.322Z,1216.2
2022-09-17T06:25:00.336Z,923.7
2022-09-17T06:30:00.352Z,1291.2
2022-09-17T06:35:00.365Z,1526.4
2022-09-17T06:40:00.487Z,1159.4
2022-09-17T06:45:04.100Z,1216.2
2022-09-17T06:50:00.582Z,1079.1
2022-09-17T06:55:00.361Z,1508.3
2022-09-17T07:00:00.373Z,1403.9
2022-09-17T07:05:00.377Z,1105.3
2022-09-17T07:10:00.397Z,1004.4
2022-09-17T07:15:00.376Z,1338.3
2022-09-17T07:20:00.397Z,2376
2022-09-17T07:25:00.397Z,2058.4
2022-09-17T07:30:00.436Z,2034
2022-09-17T07:35:00.418Z,1544.8
2022-09-17T07:40:00.499Z,2492.4
2022-09-17T07:45:02.283Z,2522.4
2022-09-17T07:50:00.417Z,3926.3
2022-09-17T07:55:00.432Z,2083.2
2022-09-17T08:00:00.717Z,1870.6
2022-09-17T08:05:00.444Z,2842.8
2022-09-17T08:10:00.441Z,2742.6
2022-09-17T08:15:00.447Z,2677.9
2022-09-17T08:20:00.449Z,1826.4
2022-09-17T08:25:00.439Z,1938.9
2022-09-17T08:30:00.450Z,1620.5
2022-09-17T08:35:00.468Z,1741
2022-09-17T08:40:00.605Z,1490.4
2022-09-17T08:45:00.963Z,3611.1
2022-09-17T08:50:00.479Z,3128.2
2022-09-17T08:55:00.471Z,2159.2
2022-09-17T09:00:00.491Z,1985.8
2022-09-17T09:05:00.478Z,2842.8
2022-09-17T09:10:00.486Z,1848.4
2022-09-17T09:15:00.560Z,3165.8
2022-09-17T09:20:00.492Z,2982.2
2022-09-17T09:25:00.497Z,2347.8
2022-09-17T09:30:00.523Z,3242.6
2022-09-17T09:35:00.501Z,1870.6
2022-09-17T09:40:00.578Z,3926.3
2022-09-17T09:45:04.789Z,2583.5
2022-09-17T09:50:00.407Z,1699.9
2022-09-17T09:55:00.272Z,4586.8
2022-09-17T10:00:00.147Z,4642
2022-09-17T10:05:00.143Z,3204.1
2022-09-17T10:10:00.130Z,4478.2
2022-09-17T10:15:00.127Z,1783.3
2022-09-17T10:20:00.202Z,2034
2022-09-17T10:25:00.159Z,4425
2022-09-17T10:30:00.139Z,4642
2022-09-17T10:35:00.434Z,3926.3
2022-09-17T10:40:00.268Z,4320.5
2022-09-17T10:45:00.159Z,4425
2022-09-17T10:50:00.200Z,3483.7
2022-09-17T10:55:00.186Z,3321.1
2022-09-17T11:00:00.172Z,2319.9
2022-09-17T11:05:00.198Z,2034
2022-09-17T11:10:00.225Z,5422.7
2022-09-17T11:15:00.187Z,3242.6
2022-09-17T11:20:00.405Z,2492.4
2022-09-17T11:25:00.324Z,3442.3
2022-09-17T11:30:00.255Z,2159.2
2022-09-17T11:35:00.377Z,4021.3
2022-09-17T11:40:00.368Z,6645.2
2022-09-17T11:45:00.278Z,5756.7
2022-09-17T11:50:00.376Z,5358.2
2022-09-17T11:55:00.308Z,5688.3
2022-09-17T12:00:00.366Z,4754.3
2022-09-17T12:05:00.465Z,6725.2
2022-09-17T12:10:00.263Z,4642
2022-09-17T12:15:00.252Z,6334.7
2022-09-17T12:20:00.278Z,7139.4
2022-09-17T12:25:00.262Z,3018
2022-09-17T12:30:00.733Z,1490.4
2022-09-17T12:35:00.283Z,1870.6
2022-09-17T12:40:00.364Z,1659.7
2022-09-17T12:45:00.289Z,3442.3
2022-09-17T12:50:00.307Z,3568
2022-09-17T12:55:00.280Z,5047.1
2022-09-17T13:00:05.255Z,4811.5
2022-09-17T13:05:01.769Z,4697.8
2022-09-17T13:10:00.312Z,3401.4
2022-09-17T13:15:00.300Z,3242.6
2022-09-17T13:20:00.320Z,1962.2
2022-09-17T13:25:00.320Z,2108.2
2022-09-17T13:30:00.321Z,2108.2
2022-09-17T13:35:01.245Z,1720.4
2022-09-17T13:40:00.380Z,2404.6
2022-09-17T13:45:00.341Z,2433.5
2022-09-17T13:50:00.343Z,2877.1
2022-09-17T13:55:00.391Z,2614.6
2022-09-17T14:00:00.353Z,4320.5
2022-09-17T14:05:00.393Z,5169.5
2022-09-17T14:10:00.375Z,4372.4
2022-09-17T14:15:00.385Z,4069.8
2022-09-17T14:20:00.389Z,3401.4
2022-09-17T14:25:00.387Z,3165.8
2022-09-17T14:30:00.375Z,3654.5
2022-09-17T14:35:00.384Z,4118.8
2022-09-17T14:40:00.434Z,3568
2022-09-17T14:45:00.390Z,4021.3
2022-09-17T14:50:00.436Z,3926.3
2022-09-17T14:55:00.422Z,3833.5
2022-09-17T15:00:00.449Z,2492.4
2022-09-17T15:05:00.423Z,2058.4
2022-09-17T15:10:00.418Z,1741
2022-09-17T15:15:00.419Z,2319.9
2022-09-17T15:20:00.424Z,2809
2022-09-17T15:25:00.423Z,1370.7
2022-09-17T15:30:00.434Z,790.8
2022-09-17T15:35:00.438Z,2319.9
2022-09-17T15:40:00.516Z,1508.3
2022-09-17T15:45:00.464Z,3165.8
2022-09-17T15:50:00.329Z,3165.8
2022-09-17T15:55:00.206Z,3568
2022-09-17T16:00:00.138Z,2583.5
2022-09-17T16:05:00.132Z,2809
2022-09-17T16:10:00.152Z,2982.2
2022-09-17T16:15:00.137Z,2159.2
2022-09-17T16:20:03.895Z,1915.9
2022-09-17T16:25:00.181Z,1472.7
2022-09-17T16:30:00.175Z,762.9
2022-09-17T16:35:00.175Z,1563.4
2022-09-17T16:40:00.305Z,1544.8
2022-09-17T16:45:00.195Z,1306.7
2022-09-17T16:50:00.297Z,969
2022-09-17T16:55:00.191Z,496
2022-09-17T17:00:00.336Z,228
2022-09-17T17:05:00.315Z,150
2022-09-17T17:10:00.324Z,253.9
2022-09-17T17:15:00.417Z,165.1
2022-09-17T17:20:00.235Z,107.3
2022-09-17T17:25:00.278Z,55.6
2022-09-17T17:30:00.233Z,23.2
2022-09-17T17:35:00.336Z,23.2
2022-09-17T17:40:01.054Z,16
2022-09-17T17:45:00.338Z,5.7
2022-09-17T17:50:00.300Z,3.2
2022-09-17T17:55:00.293Z,1.1
2022-09-17T18:00:00.305Z,1.1
2022-09-17T18:05:04.135Z,1.1
2022-09-17T18:10:00.394Z,1.1
2022-09-17T18:15:00.254Z,1.1
2022-09-17T18:20:00.282Z,1.1
2022-09-17T18:25:00.263Z,1.1
2022-09-17T18:30:00.286Z,1.1
2022-09-17T18:35:00.275Z,1.1
2022-09-17T18:40:00.296Z,1.1
2022-09-17T18:45:00.310Z,1.1
2022-09-17T18:50:00.288Z,1.1
2022-09-17T18:55:00.301Z,1.1
2022-09-17T19:00:00.314Z,1.1
2022-09-17T19:05:00.316Z,1.1
2022-09-17T19:10:00.610Z,1.1
2022-09-17T19:15:00.379Z,1.1
2022-09-17T19:20:00.487Z,1.1
2022-09-17T19:25:00.715Z,1.1
2022-09-17T19:30:00.352Z,1.1
2022-09-17T19:35:00.737Z,1.1
2022-09-17T19:40:00.398Z,1.1
2022-09-17T19:45:01.121Z,1.1
2022-09-17T19:50:00.353Z,1.1
2022-09-17T19:55:00.376Z,1.1
2022-09-17T20:00:00.374Z,1.1
2022-09-17T20:05:00.373Z,1.1
2022-09-17T20:10:00.365Z,1.1
2022-09-17T20:15:00.372Z,1.1
2022-09-17T20:20:00.370Z,1.1
2022-09-17T20:25:00.381Z,1.1
2022-09-17T20:30:00.396Z,1.1
2022-09-17T20:35:00.871Z,1.1
2022-09-17T20:40:00.700Z,1.1
2022-09-17T20:45:00.423Z,1.1
2022-09-17T20:50:00.460Z,1.1
2022-09-17T20:55:00.408Z,1.1
2022-09-17T21:00:00.420Z,1.1
2022-09-17T21:05:00.429Z,1.1
2022-09-17T21:10:00.447Z,1.1
2022-09-17T21:15:00.422Z,1.1
2022-09-17T21:20:00.442Z,1.1
2022-09-17T21:25:00.443Z,1.1
2022-09-17T21:30:00.441Z,1.1
2022-09-17T21:35:00.457Z,1.1
2022-09-17T21:40:00.567Z,1.1
2022-09-17T21:45:00.456Z,1.1
2022-09-17T21:50:00.485Z,1.1
2022-09-17T21:55:00.202Z,1.1
2022-09-17T22:00:00.137Z,1.1
2022-09-17T22:05:00.140Z,1.1
2022-09-17T22:10:00.171Z,1.1
2022-09-17T22:15:00.145Z,1.1
2022-09-17T22:20:00.194Z,1.1
2022-09-17T22:25:00.147Z,1.1
2022-09-17T22:30:00.177Z,1.1
2022-09-17T22:35:00.186Z,1.1
2022-09-17T22:40:00.240Z,1.1
2022-09-17T22:45:00.242Z,1.1
2022-09-17T22:50:00.222Z,1.1
2022-09-17T22:55:00.188Z,1.1
2022-09-17T23:00:00.204Z,1.1
2022-09-17T23:05:00.191Z,1.1
2022-09-17T23:10:00.218Z,1.1
2022-09-17T23:15:00.208Z,1.1
2022-09-17T23:20:00.211Z,1.1
2022-09-17T23:25:00.174Z,1.1
2022-09-17T23:30:00.245Z,1.1
2022-09-17T23:35:00.310Z,1.1
2022-09-17T23:40:00.338Z,1.1
2022-09-17T23:45:00.250Z,1.1
2022-09-17T23:50:00.374Z,1.1
2022-09-17T23:55:00.329Z,1.1
